createdAt,value
2022-08-07T00:01:44.588Z,49.58
2022-08-07T00:04:09.305Z,49.48
2022-08-07T00:06:45.585Z,49.54
2022-08-07T00:09:29.123Z,50.30
2022-08-07T00:12:04.599Z,50.66
2022-08-07T00:14:32.472Z,50.92
2022-08-07T00:17:02.605Z,51.12
2022-08-07T00:19:59.567Z,51.30
2022-08-07T00:22:24.441Z,51.33
2022-08-07T00:25:07.382Z,51.48
2022-08-07T00:27:53.404Z,51.57
2022-08-07T00:30:27.382Z,51.87
2022-08-07T00:32:58.399Z,52.30
2022-08-07T00:35:30.006Z,52.53
2022-08-07T00:37:59.564Z,52.98
2022-08-07T00:40:39.859Z,53.25
2022-08-07T00:43:59.702Z,53.54
2022-08-07T00:46:01.875Z,53.45
2022-08-07T00:48:32.012Z,53.90
2022-08-07T00:51:02.814Z,53.81
2022-08-07T00:53:39.379Z,53.72
2022-08-07T00:56:18.742Z,53.74
2022-08-07T00:58:49.701Z,54.09
2022-08-07T01:01:20.581Z,54.35
2022-08-07T01:03:57.312Z,54.43
2022-08-07T01:06:29.649Z,54.58
2022-08-07T01:09:00.920Z,54.58
2022-08-07T01:12:23.969Z,55.07
2022-08-07T01:14:28.876Z,55.37
2022-08-07T01:16:59.315Z,55.60
2022-08-07T01:19:32.619Z,55.71
2022-08-07T01:22:03.129Z,55.78
2022-08-07T01:24:32.537Z,55.91
2022-08-07T01:27:01.580Z,56.21
2022-08-07T01:29:33.783Z,56.85
2022-08-07T01:32:05.404Z,56.80
2022-08-07T01:34:47.195Z,56.95
2022-08-07T01:37:17.489Z,56.95
2022-08-07T01:39:47.815Z,56.73
2022-08-07T01:42:39.284Z,56.83
2022-08-07T01:45:12.803Z,57.03
2022-08-07T01:48:20.174Z,57.38
2022-08-07T01:50:43.061Z,57.43
2022-08-07T01:53:20.957Z,57.44
2022-08-07T01:55:54.796Z,57.60
2022-08-07T01:58:29.428Z,57.80
2022-08-07T02:01:09.558Z,57.97
2022-08-07T02:03:48.775Z,58.07
2022-08-07T02:06:31.590Z,58.61
2022-08-07T02:09:05.247Z,58.99
2022-08-07T02:12:02.848Z,59.17
2022-08-07T02:14:40.504Z,59.50
2022-08-07T02:17:13.723Z,59.63
2022-08-07T02:20:04.740Z,59.97
2022-08-07T02:22:41.464Z,60.06
2022-08-07T02:25:18.239Z,60.16
2022-08-07T02:27:52.244Z,60.32
2022-08-07T02:30:21.805Z,60.36
2022-08-07T02:33:01.064Z,60.29
2022-08-07T02:36:29.247Z,60.12
2022-08-07T02:38:36.931Z,59.94
2022-08-07T02:41:07.973Z,59.92
2022-08-07T02:43:43.323Z,60.04
2022-08-07T02:46:20.577Z,59.74
2022-08-07T02:48:55.097Z,59.90
2022-08-07T02:51:42.847Z,60.07
2022-08-07T02:54:18.550Z,60.12
2022-08-07T02:56:49.381Z,60.56
2022-08-07T02:59:23.979Z,60.68
2022-08-07T03:01:58.088Z,60.65
2022-08-07T03:04:31.232Z,60.89
2022-08-07T03:07:07.360Z,60.99
2022-08-07T03:09:42.133Z,60.83
2022-08-07T03:12:22.182Z,60.93
2022-08-07T03:14:52.846Z,61.13
2022-08-07T03:17:22.246Z,61.24
2022-08-07T03:19:55.512Z,61.27
2022-08-07T03:22:30.290Z,61.40
2022-08-07T03:25:00.302Z,61.32
2022-08-07T03:27:30.647Z,61.74
2022-08-07T03:30:11.151Z,66.45
2022-08-07T03:32:49.118Z,69.77
2022-08-07T03:35:43.471Z,56.45
2022-08-07T03:38:21.283Z,52.50
2022-08-07T03:40:57.873Z,52.83
2022-08-07T03:43:32.318Z,53.70
2022-08-07T03:46:04.207Z,54.33
2022-08-07T03:49:02.462Z,55.81
2022-08-07T03:51:47.825Z,56.44
2022-08-07T03:54:35.819Z,57.53
2022-08-07T03:58:35.203Z,58.02
2022-08-07T04:00:03.991Z,58.50
2022-08-07T04:02:32.718Z,58.92
2022-08-07T04:05:00.937Z,59.11
2022-08-07T04:07:41.661Z,59.32
2022-08-07T04:10:15.357Z,59.74
2022-08-07T04:12:44.083Z,60.22
2022-08-07T04:15:13.461Z,60.57
2022-08-07T04:18:57.865Z,61.02
2022-08-07T04:20:35.166Z,60.94
2022-08-07T04:23:06.649Z,68.47
2022-08-07T04:25:40.983Z,63.08
2022-08-07T04:28:13.397Z,56.47
2022-08-07T04:30:55.259Z,52.31
2022-08-07T04:33:26.338Z,52.74
2022-08-07T04:35:57.948Z,54.41
2022-08-07T04:38:26.951Z,55.35
2022-08-07T04:40:56.654Z,56.35
2022-08-07T04:44:11.994Z,57.47
2022-08-07T04:47:04.239Z,58.88
2022-08-07T04:49:42.494Z,60.07
2022-08-07T04:52:57.420Z,60.33
2022-08-07T04:58:23.957Z,60.75
2022-08-07T04:59:16.947Z,61.56
2022-08-07T05:01:56.280Z,63.89
2022-08-07T05:04:53.762Z,59.01
2022-08-07T05:07:37.026Z,54.46
2022-08-07T05:10:33.481Z,54.79
2022-08-07T05:14:56.348Z,55.23
2022-08-07T05:16:30.509Z,56.95
2022-08-07T05:19:10.421Z,57.49
2022-08-07T05:22:00.303Z,58.54
2022-08-07T05:24:40.427Z,59.07
2022-08-07T05:28:02.760Z,59.93
2022-08-07T05:30:03.912Z,60.53
2022-08-07T05:32:32.859Z,60.66
2022-08-07T05:35:02.701Z,61.18
2022-08-07T05:37:31.769Z,61.44
2022-08-07T05:40:17.747Z,61.24
2022-08-07T05:42:56.196Z,61.61
2022-08-07T05:45:46.285Z,61.56
2022-08-07T05:48:15.129Z,61.67
2022-08-07T05:50:43.548Z,61.86
2022-08-07T05:54:09.715Z,61.88
2022-08-07T05:56:03.099Z,63.00
2022-08-07T05:58:37.717Z,67.77
2022-08-07T06:01:11.441Z,57.07
2022-08-07T06:03:53.734Z,51.43
2022-08-07T06:06:29.722Z,52.51
2022-08-07T06:09:04.566Z,53.65
2022-08-07T06:11:34.999Z,54.70
2022-08-07T06:14:13.298Z,55.26
2022-08-07T06:16:56.365Z,56.26
2022-08-07T06:19:49.981Z,56.39
2022-08-07T06:22:23.318Z,56.08
2022-08-07T06:24:58.542Z,56.12
2022-08-07T06:27:44.142Z,56.52
2022-08-07T06:30:32.248Z,57.34
2022-08-07T06:33:15.780Z,57.35
2022-08-07T06:35:47.691Z,57.43
2022-08-07T06:38:20.604Z,57.96
2022-08-07T06:40:54.321Z,57.50
2022-08-07T06:43:25.334Z,57.67
2022-08-07T06:45:59.914Z,58.00
2022-08-07T06:48:29.009Z,57.81
2022-08-07T06:51:07.910Z,57.08
2022-08-07T06:54:11.934Z,56.47
2022-08-07T06:56:49.617Z,56.42
2022-08-07T07:00:14.269Z,55.85
2022-08-07T07:02:48.488Z,55.18
2022-08-07T07:05:13.989Z,55.49
2022-08-07T07:08:06.531Z,55.91
2022-08-07T07:10:36.045Z,55.95
2022-08-07T07:13:40.860Z,56.25
2022-08-07T07:16:22.370Z,55.92
2022-08-07T07:19:11.388Z,55.01
2022-08-07T07:22:11.689Z,54.35
2022-08-07T07:24:56.997Z,54.10
2022-08-07T07:27:56.411Z,54.18
2022-08-07T07:30:38.399Z,54.08
2022-08-07T07:33:17.240Z,53.75
2022-08-07T07:36:05.690Z,53.66
2022-08-07T07:38:41.040Z,53.16
2022-08-07T07:41:12.724Z,52.50
2022-08-07T07:44:14.158Z,52.22
2022-08-07T07:46:55.648Z,51.81
2022-08-07T07:50:33.455Z,52.37
2022-08-07T07:52:18.681Z,52.21
2022-08-07T07:54:50.606Z,51.76
2022-08-07T07:57:43.830Z,51.77
2022-08-07T08:00:21.155Z,51.80
2022-08-07T08:03:09.446Z,50.24
2022-08-07T08:05:54.924Z,50.41
2022-08-07T08:08:35.470Z,50.43
2022-08-07T08:11:09.288Z,49.40
2022-08-07T08:13:54.806Z,49.01
2022-08-07T08:16:42.716Z,49.57
2022-08-07T08:20:17.681Z,49.99
2022-08-07T08:22:36.733Z,49.26
2022-08-07T08:25:43.059Z,49.64
2022-08-07T08:28:37.681Z,49.39
2022-08-07T08:31:15.885Z,48.93
2022-08-07T08:33:49.621Z,48.49
2022-08-07T08:36:30.054Z,48.82
2022-08-07T08:39:02.065Z,48.54
2022-08-07T08:41:57.064Z,47.80
2022-08-07T08:45:13.481Z,47.75
2022-08-07T08:48:38.553Z,48.11
2022-08-07T08:51:26.005Z,48.50
2022-08-07T08:54:48.007Z,48.64
2022-08-07T08:57:42.457Z,48.51
2022-08-07T09:00:15.272Z,48.38
2022-08-07T09:03:07.550Z,48.18
2022-08-07T09:06:00.017Z,47.52
2022-08-07T09:08:49.881Z,47.28
2022-08-07T09:11:50.807Z,47.07
2022-08-07T09:14:39.143Z,46.69
2022-08-07T09:17:33.959Z,47.39
2022-08-07T09:20:43.002Z,47.21
2022-08-07T09:24:33.685Z,46.18
2022-08-07T09:26:57.076Z,45.86
2022-08-07T09:30:09.140Z,44.72
2022-08-07T09:32:55.046Z,45.55
2022-08-07T09:36:04.671Z,44.73
2022-08-07T09:38:43.766Z,45.28
2022-08-07T09:41:59.166Z,45.47
2022-08-07T09:47:25.193Z,45.19
2022-08-07T09:48:21.343Z,44.61
2022-08-07T09:52:16.132Z,44.31
2022-08-07T09:54:47.574Z,44.06
2022-08-07T09:57:46.865Z,43.54
2022-08-07T10:00:18.801Z,43.49
2022-08-07T10:04:05.164Z,43.28
2022-08-07T10:06:29.713Z,43.49
2022-08-07T10:09:34.538Z,43.74
2022-08-07T10:12:39.961Z,43.62
2022-08-07T10:15:44.010Z,43.18
2022-08-07T10:19:11.405Z,42.86
2022-08-07T10:22:16.941Z,42.52
2022-08-07T10:24:56.114Z,41.96
2022-08-07T10:28:16.586Z,42.13
2022-08-07T10:32:16.491Z,42.00
2022-08-07T10:35:53.550Z,41.18
2022-08-07T10:38:36.169Z,41.59
2022-08-07T10:41:51.633Z,40.57
2022-08-07T10:44:57.051Z,40.79
2022-08-07T10:48:02.784Z,41.03
2022-08-07T10:51:07.623Z,39.82
2022-08-07T10:54:23.654Z,39.69
2022-08-07T10:57:34.676Z,39.07
2022-08-07T11:00:39.466Z,39.56
2022-08-07T11:03:37.336Z,39.50
2022-08-07T11:06:22.134Z,39.34
2022-08-07T11:09:11.067Z,39.43
2022-08-07T11:12:31.267Z,39.52
2022-08-07T11:15:14.791Z,39.54
2022-08-07T11:18:03.767Z,38.66
2022-08-07T11:20:48.486Z,39.13
2022-08-07T11:23:30.724Z,39.22
2022-08-07T11:26:21.602Z,38.92
2022-08-07T11:29:05.724Z,38.79
2022-08-07T11:32:37.002Z,38.97
2022-08-07T11:35:26.888Z,39.05
2022-08-07T11:38:17.383Z,38.74
2022-08-07T11:41:22.099Z,38.83
2022-08-07T11:44:33.013Z,39.06
2022-08-07T11:47:39.154Z,39.09
2022-08-07T11:50:58.148Z,38.61
2022-08-07T11:54:01.771Z,38.77
2022-08-07T11:56:56.228Z,38.57
2022-08-07T12:00:19.288Z,38.43
2022-08-07T12:03:42.019Z,38.60
2022-08-07T12:06:39.477Z,38.48
2022-08-07T12:09:23.327Z,38.64
2022-08-07T12:12:12.103Z,38.58
2022-08-07T12:14:56.097Z,38.80
2022-08-07T12:17:59.598Z,38.66
2022-08-07T12:20:52.346Z,38.25
2022-08-07T12:24:06.881Z,38.63
2022-08-07T12:26:54.886Z,38.47
2022-08-07T12:29:41.614Z,38.21
2022-08-07T12:32:20.931Z,37.88
2022-08-07T12:34:56.224Z,37.83
2022-08-07T12:37:28.175Z,37.84
2022-08-07T12:40:47.882Z,37.48
2022-08-07T12:44:03.454Z,37.57
2022-08-07T12:46:34.835Z,37.04
2022-08-07T12:49:39.813Z,37.52
2022-08-07T12:52:18.052Z,37.54
2022-08-07T12:55:03.826Z,37.73
2022-08-07T12:58:01.349Z,38.03
2022-08-07T13:00:50.994Z,38.08
2022-08-07T13:03:56.169Z,37.82
2022-08-07T13:06:54.302Z,39.00
2022-08-07T13:10:38.086Z,39.49
2022-08-07T13:13:47.178Z,39.99
2022-08-07T13:16:25.083Z,39.85
2022-08-07T13:19:21.945Z,39.85
2022-08-07T13:22:19.946Z,40.15
2022-08-07T13:25:28.786Z,40.31
2022-08-07T13:28:11.161Z,40.51
2022-08-07T13:31:01.960Z,40.48
2022-08-07T13:34:30.191Z,40.90
2022-08-07T13:37:04.210Z,41.50
2022-08-07T13:40:35.499Z,42.45
2022-08-07T13:43:03.220Z,42.65
2022-08-07T13:46:10.873Z,42.24
2022-08-07T13:48:34.098Z,42.49
2022-08-07T13:51:27.371Z,42.56
2022-08-07T13:54:05.286Z,42.63
2022-08-07T13:56:41.291Z,43.04
2022-08-07T13:59:25.729Z,42.26
2022-08-07T14:02:10.435Z,42.34
2022-08-07T14:04:48.984Z,42.46
2022-08-07T14:07:31.378Z,42.13
2022-08-07T14:10:21.814Z,42.47
2022-08-07T14:13:00.789Z,42.87
2022-08-07T14:15:37.084Z,42.98
2022-08-07T14:18:33.227Z,43.29
2022-08-07T14:21:21.222Z,43.63
2022-08-07T14:24:27.519Z,44.22
2022-08-07T14:27:00.734Z,44.97
2022-08-07T14:30:10.270Z,44.96
2022-08-07T14:32:48.074Z,45.52
2022-08-07T14:35:44.914Z,45.76
2022-08-07T14:38:30.359Z,45.66
2022-08-07T14:41:12.424Z,45.79
2022-08-07T14:43:57.211Z,46.55
2022-08-07T14:46:33.432Z,47.17
2022-08-07T14:49:17.343Z,47.27
2022-08-07T14:54:43.755Z,47.12
2022-08-07T15:00:08.255Z,47.60
2022-08-07T15:02:39.507Z,47.93
2022-08-07T15:05:20.303Z,48.34
2022-08-07T15:07:52.252Z,48.81
2022-08-07T15:10:26.897Z,49.79
2022-08-07T15:13:17.726Z,50.08
2022-08-07T15:15:53.603Z,49.80
2022-08-07T15:18:40.237Z,50.38
2022-08-07T15:21:58.539Z,50.78
2022-08-07T15:25:14.674Z,51.11
2022-08-07T15:27:29.021Z,51.70
2022-08-07T15:30:16.213Z,52.43
2022-08-07T15:33:01.184Z,52.30
2022-08-07T15:36:00.773Z,52.38
2022-08-07T15:38:50.987Z,52.19
2022-08-07T15:42:43.441Z,52.00
2022-08-07T15:44:20.359Z,52.42
2022-08-07T15:47:03.601Z,52.91
2022-08-07T15:50:05.347Z,53.32
2022-08-07T15:52:30.122Z,53.75
2022-08-07T15:55:04.059Z,53.81
2022-08-07T15:57:39.467Z,53.67
2022-08-07T16:00:31.749Z,53.71
2022-08-07T16:03:20.509Z,53.96
2022-08-07T16:05:53.501Z,53.94
2022-08-07T16:08:31.290Z,54.15
2022-08-07T16:11:40.091Z,54.24
2022-08-07T16:14:50.164Z,54.51
2022-08-07T16:18:02.820Z,54.72
2022-08-07T16:22:02.402Z,55.25
2022-08-07T16:24:34.886Z,55.84
2022-08-07T16:27:39.819Z,56.04
2022-08-07T16:30:30.376Z,56.55
2022-08-07T16:34:03.082Z,57.45
2022-08-07T16:36:20.762Z,57.34
2022-08-07T16:39:40.150Z,57.82
2022-08-07T16:42:51.213Z,57.21
2022-08-07T16:47:04.482Z,57.07
2022-08-07T16:50:28.246Z,57.55
2022-08-07T16:52:52.645Z,57.73
2022-08-07T16:56:20.727Z,57.81
2022-08-07T16:59:19.634Z,58.20
2022-08-07T17:02:15.093Z,58.31
2022-08-07T17:06:28.441Z,58.57
2022-08-07T17:09:08.815Z,58.62
2022-08-07T17:12:04.375Z,59.33
2022-08-07T17:14:53.090Z,59.73
2022-08-07T17:17:49.509Z,59.73
2022-08-07T17:20:31.783Z,60.05
2022-08-07T17:23:22.502Z,60.18
2022-08-07T17:26:22.592Z,60.41
2022-08-07T17:28:58.017Z,60.66
2022-08-07T17:32:03.249Z,60.88
2022-08-07T17:35:32.994Z,61.97
2022-08-07T17:38:05.736Z,66.73
2022-08-07T17:40:50.505Z,69.02
2022-08-07T17:44:00.948Z,64.89
2022-08-07T17:46:34.778Z,55.03
2022-08-07T17:49:44.954Z,53.94
2022-08-07T17:52:43.323Z,54.54
2022-08-07T17:55:16.488Z,55.98
2022-08-07T17:58:30.667Z,56.99
2022-08-07T18:01:20.664Z,58.61
2022-08-07T18:04:31.106Z,69.05
2022-08-07T18:07:20.199Z,67.82
2022-08-07T18:10:32.441Z,62.45
2022-08-07T18:13:20.374Z,56.24
2022-08-07T18:16:33.120Z,55.45
2022-08-07T18:21:06.590Z,56.21
2022-08-07T18:22:48.960Z,57.55
2022-08-07T18:25:40.307Z,59.81
2022-08-07T18:28:58.283Z,60.13
2022-08-07T18:31:50.357Z,70.01
2022-08-07T18:35:07.970Z,64.21
2022-08-07T18:38:55.332Z,55.68
2022-08-07T18:41:20.586Z,55.84
2022-08-07T18:44:25.394Z,56.93
2022-08-07T18:47:11.543Z,57.36
2022-08-07T18:50:40.754Z,59.44
2022-08-07T18:53:48.744Z,69.78
2022-08-07T18:56:58.244Z,64.69
2022-08-07T18:59:58.891Z,60.26
2022-08-07T19:02:42.454Z,54.91
2022-08-07T19:06:02.558Z,55.15
2022-08-07T19:08:55.941Z,57.99
2022-08-07T19:12:07.971Z,57.94
2022-08-07T19:14:55.202Z,69.04
2022-08-07T19:18:02.353Z,64.46
2022-08-07T19:21:08.296Z,61.68
2022-08-07T19:23:59.453Z,55.63
2022-08-07T19:28:28.367Z,55.40
2022-08-07T19:30:55.191Z,57.60
2022-08-07T19:32:39.466Z,59.52
2022-08-07T19:35:22.481Z,67.65
2022-08-07T19:37:58.436Z,65.25
2022-08-07T19:40:37.909Z,61.15
2022-08-07T19:43:50.006Z,55.71
2022-08-07T19:46:29.189Z,55.43
2022-08-07T19:49:19.149Z,56.77
2022-08-07T19:52:06.844Z,59.74
2022-08-07T19:54:56.548Z,67.83
2022-08-07T19:58:02.107Z,67.02
2022-08-07T20:00:29.801Z,61.15
2022-08-07T20:03:34.042Z,56.36
2022-08-07T20:06:03.888Z,55.94
2022-08-07T20:08:39.982Z,58.12
2022-08-07T20:11:34.295Z,58.99
2022-08-07T20:14:13.516Z,67.10
2022-08-07T20:16:54.254Z,65.58
2022-08-07T20:19:47.909Z,61.33
2022-08-07T20:22:29.340Z,55.96
2022-08-07T20:25:12.526Z,55.51
2022-08-07T20:27:54.361Z,57.64
2022-08-07T20:30:36.261Z,58.99
2022-08-07T20:33:09.090Z,60.91
2022-08-07T20:36:02.927Z,69.05
2022-08-07T20:38:33.318Z,66.28
2022-08-07T20:41:05.759Z,58.99
2022-08-07T20:43:35.390Z,58.31
2022-08-07T20:46:28.666Z,60.18
2022-08-07T20:49:58.337Z,67.46
2022-08-07T20:51:51.106Z,66.03
2022-08-07T20:54:30.023Z,62.37
2022-08-07T20:57:04.484Z,56.74
2022-08-07T21:00:07.669Z,55.78
2022-08-07T21:02:54.585Z,57.19
2022-08-07T21:05:55.882Z,59.38
2022-08-07T21:08:37.986Z,66.46
2022-08-07T21:11:14.305Z,65.69
2022-08-07T21:14:16.401Z,61.31
2022-08-07T21:17:06.675Z,55.71
2022-08-07T21:19:51.671Z,56.31
2022-08-07T21:22:44.942Z,58.34
2022-08-07T21:26:05.360Z,59.46
2022-08-07T21:28:51.154Z,66.76
2022-08-07T21:32:42.938Z,65.70
2022-08-07T21:34:48.889Z,62.47
2022-08-07T21:37:57.184Z,57.38
2022-08-07T21:40:47.651Z,56.85
2022-08-07T21:43:36.747Z,57.78
2022-08-07T21:46:31.787Z,59.42
2022-08-07T21:49:26.929Z,69.61
2022-08-07T21:52:13.236Z,67.16
2022-08-07T21:55:37.278Z,62.22
2022-08-07T21:58:53.013Z,55.45
2022-08-07T22:02:07.647Z,55.63
2022-08-07T22:04:31.715Z,58.65
2022-08-07T22:07:09.112Z,66.77
2022-08-07T22:09:53.798Z,66.17
2022-08-07T22:12:37.293Z,61.48
2022-08-07T22:16:38.995Z,55.20
2022-08-07T22:18:33.043Z,56.24
2022-08-07T22:22:01.774Z,58.42
2022-08-07T22:24:32.711Z,59.04
2022-08-07T22:27:18.821Z,66.55
2022-08-07T22:30:03.222Z,67.05
2022-08-07T22:33:12.312Z,60.80
2022-08-07T22:36:02.126Z,55.14
2022-08-07T22:38:59.309Z,56.55
2022-08-07T22:42:19.897Z,59.08
2022-08-07T22:45:02.439Z,60.87
2022-08-07T22:48:03.056Z,68.76
2022-08-07T22:51:15.506Z,64.40
2022-08-07T22:54:22.350Z,57.79
2022-08-07T22:57:33.987Z,55.06
2022-08-07T23:00:32.376Z,57.97
2022-08-07T23:03:28.455Z,60.44
2022-08-07T23:06:51.287Z,68.42
2022-08-07T23:10:37.327Z,63.33
2022-08-07T23:13:17.935Z,57.92
2022-08-07T23:16:07.028Z,54.88
2022-08-07T23:19:13.680Z,56.65
2022-08-07T23:22:21.765Z,59.11
2022-08-07T23:25:06.792Z,61.20
2022-08-07T23:28:20.294Z,69.15
2022-08-07T23:32:49.336Z,66.06
2022-08-07T23:34:51.594Z,58.81
2022-08-07T23:38:19.102Z,54.38
2022-08-07T23:42:05.297Z,55.65
2022-08-07T23:46:01.957Z,57.40
2022-08-07T23:48:11.955Z,69.13
2022-08-07T23:52:58.189Z,64.07
2022-08-07T23:54:44.253Z,58.89
2022-08-07T23:57:44.087Z,54.22
